Time;durP1;ratioP1;P1;durP2;ratioP2;P2;SDS_P1;SDS_P2;PMS_P1;PMS_P2;Temp;Humidity;BMP_temperature;BMP_pressure;BME280_temperature;BME280_humidity;BME280_pressure;Samples;Min_cycle;Max_cycle;Signal;HPM_P1;HPM_P2
2021/12/23 00:00:00;;;;;;;41.37;16.17;;;;;;;;;;1811487;78;20926;-63
2021/12/23 00:02:26;;;;;;;33.23;16.37;;;;;;;;;;1809913;78;20922;-63
2021/12/23 00:04:52;;;;;;;33.03;15.00;;;;;;;;;;1807426;78;20871;-63
2021/12/23 00:07:18;;;;;;;33.77;15.07;;;;;;;;;;1812165;78;21209;-63
2021/12/23 00:12:18;;;;;;;29.83;15.60;;;;;;;;;;1797960;78;20878;-63
2021/12/23 00:14:46;;;;;;;36.83;16.27;;;;;;;;;;1805308;78;20942;-63
2021/12/23 00:17:27;;;;;;;45.30;19.57;;;;;;;;;;1803536;78;20900;-63
2021/12/23 00:25:02;;;;;;;47.13;17.87;;;;;;;;;;1807341;78;20874;-62
2021/12/23 00:27:28;;;;;;;36.67;17.67;;;;;;;;;;1807281;78;21025;-63
2021/12/23 00:29:54;;;;;;;41.87;18.83;;;;;;;;;;1816822;78;20996;-62
2021/12/23 00:32:20;;;;;;;34.37;16.63;;;;;;;;;;1812135;78;21826;-63
2021/12/23 00:34:46;;;;;;;37.80;19.90;;;;;;;;;;1801280;78;20918;-63
2021/12/23 00:37:13;;;;;;;43.83;20.70;;;;;;;;;;1806105;78;20920;-63
2021/12/23 00:39:39;;;;;;;46.03;19.83;;;;;;;;;;1809260;78;20926;-63
2021/12/23 00:42:08;;;;;;;43.73;19.73;;;;;;;;;;1813126;78;20957;-63
2021/12/23 00:44:35;;;;;;;37.27;18.40;;;;;;;;;;1801944;78;21142;-63
2021/12/23 00:47:01;;;;;;;34.60;17.03;;;;;;;;;;1801608;78;21377;-62
2021/12/23 00:49:27;;;;;;;37.33;18.37;;;;;;;;;;1812806;78;21032;-62
2021/12/23 00:51:54;;;;;;;41.40;18.13;;;;;;;;;;1809390;78;20929;-62
2021/12/23 00:54:21;;;;;;;35.23;17.37;;;;;;;;;;1801084;78;20921;-62
2021/12/23 00:56:49;;;;;;;39.70;16.53;;;;;;;;;;1812970;78;21957;-63
2021/12/23 00:59:15;;;;;;;32.53;15.20;;;;;;;;;;1810837;78;20903;-63
2021/12/23 01:01:42;;;;;;;31.80;14.77;;;;;;;;;;1803588;78;20909;-63
2021/12/23 01:04:08;;;;;;;33.70;14.30;;;;;;;;;;1796337;78;21530;-63
2021/12/23 01:06:35;;;;;;;27.33;15.40;;;;;;;;;;1809736;78;21005;-63
2021/12/23 01:09:01;;;;;;;35.53;17.77;;;;;;;;;;1811696;78;21147;-63
2021/12/23 01:11:28;;;;;;;42.97;16.77;;;;;;;;;;1804730;78;20993;-62
2021/12/23 01:14:25;;;;;;;34.63;16.63;;;;;;;;;;1809846;78;21028;-62
2021/12/23 01:17:42;;;;;;;35.03;18.07;;;;;;;;;;1797044;78;20946;-63
2021/12/23 01:19:11;;;;;;;44.17;18.17;;;;;;;;;;1801413;78;21021;-62
2021/12/23 01:21:34;;;;;;;34.27;16.80;;;;;;;;;;1806164;78;21129;-63
2021/12/23 01:24:00;;;;;;;36.87;17.00;;;;;;;;;;1819229;78;20902;-63
2021/12/23 01:26:26;;;;;;;36.40;17.20;;;;;;;;;;1804486;78;21026;-62
2021/12/23 01:28:56;;;;;;;39.63;18.87;;;;;;;;;;1811852;78;20914;-63
2021/12/23 01:31:24;;;;;;;34.67;15.93;;;;;;;;;;1805661;78;21412;-63
2021/12/23 01:33:50;;;;;;;28.57;15.00;;;;;;;;;;1804701;78;21436;-63
2021/12/23 01:36:16;;;;;;;29.90;15.80;;;;;;;;;;1804707;78;20882;-63
2021/12/23 01:38:43;;;;;;;26.47;12.63;;;;;;;;;;1808411;78;20847;-63
2021/12/23 01:41:11;;;;;;;32.03;14.40;;;;;;;;;;1799708;78;21468;-63
2021/12/23 01:43:37;;;;;;;26.37;13.27;;;;;;;;;;1809169;78;20963;-63
2021/12/23 01:46:03;;;;;;;27.43;12.80;;;;;;;;;;1806895;78;21127;-63
2021/12/23 01:48:31;;;;;;;22.00;11.47;;;;;;;;;;1807735;78;20894;-63
2021/12/23 01:50:57;;;;;;;23.60;11.27;;;;;;;;;;1804241;78;20887;-63
2021/12/23 01:53:23;;;;;;;20.67;11.13;;;;;;;;;;1807048;78;21012;-62
2021/12/23 01:55:50;;;;;;;24.80;12.70;;;;;;;;;;1803041;78;21443;-63
2021/12/23 01:58:16;;;;;;;31.13;13.67;;;;;;;;;;1802372;78;21827;-63
2021/12/23 02:00:44;;;;;;;20.57;11.20;;;;;;;;;;1810297;78;20957;-62
2021/12/23 02:03:10;;;;;;;18.70;10.97;;;;;;;;;;1811559;78;20969;-63
2021/12/23 02:05:37;;;;;;;17.87;9.87;;;;;;;;;;1806337;78;21002;-64
2021/12/23 02:08:04;;;;;;;18.43;11.47;;;;;;;;;;1809687;78;21059;-63
2021/12/23 02:10:30;;;;;;;18.23;11.03;;;;;;;;;;1812896;78;21151;-64
2021/12/23 02:12:57;;;;;;;26.30;12.87;;;;;;;;;;1803241;78;21492;-62
2021/12/23 02:15:25;;;;;;;25.63;13.30;;;;;;;;;;1808397;78;21002;-62
2021/12/23 02:17:52;;;;;;;37.70;16.80;;;;;;;;;;1805738;78;20846;-62
2021/12/23 02:20:29;;;;;;;31.77;16.27;;;;;;;;;;1810915;78;20977;-62
2021/12/23 02:22:56;;;;;;;29.43;16.23;;;;;;;;;;1810090;78;21140;-62
2021/12/23 02:25:22;;;;;;;33.73;16.93;;;;;;;;;;1803099;78;20874;-63
2021/12/23 02:27:48;;;;;;;44.33;17.73;;;;;;;;;;1811111;78;21006;-63
2021/12/23 02:30:17;;;;;;;32.57;16.17;;;;;;;;;;1814234;78;20930;-62
2021/12/23 02:32:44;;;;;;;34.90;16.13;;;;;;;;;;1809687;78;20997;-63
2021/12/23 02:35:12;;;;;;;32.60;16.90;;;;;;;;;;1806337;78;21122;-63
2021/12/23 02:37:39;;;;;;;29.73;15.17;;;;;;;;;;1806061;78;21546;-63
2021/12/23 02:40:07;;;;;;;31.33;14.77;;;;;;;;;;1816025;78;20953;-62
2021/12/23 02:42:33;;;;;;;27.80;13.60;;;;;;;;;;1809484;78;21515;-62
2021/12/23 02:45:01;;;;;;;30.77;13.53;;;;;;;;;;1807771;78;20991;-64
2021/12/23 02:47:27;;;;;;;31.63;13.17;;;;;;;;;;1801667;78;21153;-61
2021/12/23 02:49:54;;;;;;;31.80;13.93;;;;;;;;;;1813665;78;20981;-63
2021/12/23 02:52:20;;;;;;;29.33;15.80;;;;;;;;;;1807846;78;20973;-64
2021/12/23 02:54:55;;;;;;;34.47;15.77;;;;;;;;;;1802082;78;21593;-62
2021/12/23 02:57:21;;;;;;;37.90;14.28;;;;;;;;;;1798383;78;21444;-61
2021/12/23 02:59:47;;;;;;;32.03;14.90;;;;;;;;;;1809797;78;21147;-62
2021/12/23 03:02:13;;;;;;;32.93;15.67;;;;;;;;;;1816775;78;21028;-62
2021/12/23 03:04:41;;;;;;;32.53;14.73;;;;;;;;;;1807292;78;21535;-62
2021/12/23 03:07:07;;;;;;;34.57;15.30;;;;;;;;;;1815208;78;20996;-62
2021/12/23 03:09:34;;;;;;;36.63;14.13;;;;;;;;;;1816656;78;21491;-62
2021/12/23 03:12:00;;;;;;;26.50;12.60;;;;;;;;;;1801429;78;21091;-62
2021/12/23 03:14:26;;;;;;;23.83;13.13;;;;;;;;;;1808281;78;21532;-63
2021/12/23 03:16:53;;;;;;;28.50;13.40;;;;;;;;;;1808761;78;21439;-63
2021/12/23 03:19:19;;;;;;;28.97;13.70;;;;;;;;;;1813879;78;20910;-63
2021/12/23 03:21:45;;;;;;;31.03;13.70;;;;;;;;;;1809576;78;21028;-63
2021/12/23 03:24:12;;;;;;;31.70;15.83;;;;;;;;;;1809124;78;21137;-63
2021/12/23 03:26:39;;;;;;;35.47;15.27;;;;;;;;;;1808711;78;20910;-63
2021/12/23 03:29:07;;;;;;;33.23;15.07;;;;;;;;;;1817065;78;21467;-63
2021/12/23 03:31:33;;;;;;;32.03;15.57;;;;;;;;;;1802697;78;20960;-63
2021/12/23 03:33:59;;;;;;;30.40;14.93;;;;;;;;;;1805328;78;21472;-62
2021/12/23 03:36:25;;;;;;;33.53;16.10;;;;;;;;;;1806163;78;21141;-62
2021/12/23 03:38:51;;;;;;;36.00;16.13;;;;;;;;;;1812912;78;20906;-63
2021/12/23 03:41:17;;;;;;;41.97;17.27;;;;;;;;;;1803320;79;21436;-62
2021/12/23 03:43:44;;;;;;;39.40;16.13;;;;;;;;;;1798153;79;20973;-63
2021/12/23 03:46:10;;;;;;;31.23;15.40;;;;;;;;;;1761736;80;21556;-62
2021/12/23 03:48:37;;;;;;;29.73;14.27;;;;;;;;;;1738900;82;21062;-62
2021/12/23 03:51:03;;;;;;;35.83;15.07;;;;;;;;;;1764544;80;20864;-63
2021/12/23 03:53:29;;;;;;;30.63;13.97;;;;;;;;;;1733683;82;20964;-63
2021/12/23 03:55:55;;;;;;;32.77;15.10;;;;;;;;;;1752438;81;20964;-62
2021/12/23 03:58:21;;;;;;;35.87;15.93;;;;;;;;;;1761170;80;20891;-61
2021/12/23 04:00:47;;;;;;;34.77;14.77;;;;;;;;;;1736554;82;21181;-62
2021/12/23 04:03:14;;;;;;;31.37;14.13;;;;;;;;;;1765041;80;21002;-63
2021/12/23 04:05:40;;;;;;;36.37;15.73;;;;;;;;;;1734203;81;21544;-63
2021/12/23 04:08:08;;;;;;;33.27;16.07;;;;;;;;;;1750097;80;21045;-63
2021/12/23 04:10:34;;;;;;;34.40;15.83;;;;;;;;;;1766144;80;20942;-63
2021/12/23 04:13:00;;;;;;;43.90;19.27;;;;;;;;;;1732912;82;21209;-62
2021/12/23 04:15:26;;;;;;;42.47;21.37;;;;;;;;;;1767454;80;21017;-62
2021/12/23 04:17:52;;;;;;;39.97;19.47;;;;;;;;;;1761416;80;20859;-62
2021/12/23 04:20:21;;;;;;;40.43;18.57;;;;;;;;;;1767097;80;21477;-62
2021/12/23 04:22:49;;;;;;;30.20;15.23;;;;;;;;;;1765713;80;20942;-62
2021/12/23 04:25:16;;;;;;;30.30;14.23;;;;;;;;;;1766605;80;21879;-62
2021/12/23 04:27:44;;;;;;;32.37;13.90;;;;;;;;;;1766490;80;21038;-63
2021/12/23 04:30:10;;;;;;;25.23;14.47;;;;;;;;;;1758825;80;20987;-63
2021/12/23 04:32:37;;;;;;;27.93;12.73;;;;;;;;;;1727650;82;21007;-63
2021/12/23 04:35:04;;;;;;;25.63;14.23;;;;;;;;;;1766374;80;20868;-63
2021/12/23 04:37:30;;;;;;;31.77;14.10;;;;;;;;;;1736152;82;21181;-62
2021/12/23 04:39:56;;;;;;;30.27;14.03;;;;;;;;;;1769000;80;21030;-62
2021/12/23 04:42:22;;;;;;;38.87;16.93;;;;;;;;;;1798234;78;20909;-62
2021/12/23 04:44:49;;;;;;;35.03;14.00;;;;;;;;;;1813342;78;20910;-62
2021/12/23 04:47:15;;;;;;;37.37;14.57;;;;;;;;;;1799888;78;20969;-63
2021/12/23 04:49:41;;;;;;;33.63;14.53;;;;;;;;;;1779486;79;21875;-63
2021/12/23 04:52:08;;;;;;;33.37;16.20;;;;;;;;;;1798867;78;21487;-63
2021/12/23 04:54:34;;;;;;;38.40;17.30;;;;;;;;;;1772238;80;20985;-63
2021/12/23 04:57:00;;;;;;;42.77;18.10;;;;;;;;;;1811684;78;20923;-63
2021/12/23 04:59:26;;;;;;;38.03;17.23;;;;;;;;;;1820646;78;21459;-62
2021/12/23 05:01:52;;;;;;;37.80;18.00;;;;;;;;;;1798478;78;23396;-62
2021/12/23 05:04:19;;;;;;;42.97;18.07;;;;;;;;;;1768181;79;20907;-62
2021/12/23 05:06:45;;;;;;;42.53;17.63;;;;;;;;;;1819634;78;21388;-61
2021/12/23 05:09:11;;;;;;;37.47;17.97;;;;;;;;;;1777297;80;21449;-61
2021/12/23 05:11:37;;;;;;;40.07;16.93;;;;;;;;;;1802599;78;21429;-61
2021/12/23 05:14:04;;;;;;;41.33;17.93;;;;;;;;;;1805681;78;21140;-62
2021/12/23 05:16:30;;;;;;;36.13;15.53;;;;;;;;;;1807232;78;21402;-62
2021/12/23 05:18:56;;;;;;;42.30;17.23;;;;;;;;;;1821327;78;21001;-62
2021/12/23 05:21:23;;;;;;;36.67;17.47;;;;;;;;;;1802236;78;20937;-61
2021/12/23 05:23:49;;;;;;;28.10;15.00;;;;;;;;;;1803726;78;20931;-62
2021/12/23 05:26:15;;;;;;;31.07;16.87;;;;;;;;;;1808545;78;21056;-63
2021/12/23 05:28:42;;;;;;;40.37;16.73;;;;;;;;;;1808001;78;20926;-64
2021/12/23 05:31:08;;;;;;;38.80;17.93;;;;;;;;;;1785802;78;20926;-63
2021/12/23 05:33:34;;;;;;;37.13;15.80;;;;;;;;;;1810649;78;21047;-63
2021/12/23 05:36:01;;;;;;;31.33;14.93;;;;;;;;;;1807639;78;20859;-62
2021/12/23 05:38:27;;;;;;;31.73;16.37;;;;;;;;;;1766351;80;21190;-63
2021/12/23 05:40:53;;;;;;;45.13;16.57;;;;;;;;;;1797187;78;21389;-62
2021/12/23 05:43:19;;;;;;;35.87;17.53;;;;;;;;;;1760297;80;20935;-64
2021/12/23 05:45:45;;;;;;;61.40;30.03;;;;;;;;;;1734602;82;21062;-61
2021/12/23 05:48:11;;;;;;;83.93;40.77;;;;;;;;;;1763369;80;21508;-61
2021/12/23 05:50:37;;;;;;;57.03;28.57;;;;;;;;;;1762140;80;21360;-62
2021/12/23 05:53:03;;;;;;;48.70;23.80;;;;;;;;;;1762836;80;21072;-65
2021/12/23 05:55:29;;;;;;;49.77;21.33;;;;;;;;;;1762225;81;21441;-65
2021/12/23 05:57:56;;;;;;;48.83;21.10;;;;;;;;;;1732301;81;21652;-61
2021/12/23 06:00:24;;;;;;;43.47;19.50;;;;;;;;;;1763633;81;21001;-61
2021/12/23 06:02:51;;;;;;;51.20;20.83;;;;;;;;;;1760308;80;21137;-64
2021/12/23 06:05:17;;;;;;;45.20;20.33;;;;;;;;;;1763509;80;21017;-64
2021/12/23 06:07:43;;;;;;;46.10;19.93;;;;;;;;;;1759346;80;20942;-61
2021/12/23 06:10:09;;;;;;;50.30;19.30;;;;;;;;;;1766528;80;21551;-72
2021/12/23 06:12:37;;;;;;;42.60;19.33;;;;;;;;;;1759666;81;20992;-64
2021/12/23 06:15:04;;;;;;;44.33;19.70;;;;;;;;;;1763357;80;21143;-62
2021/12/23 06:17:30;;;;;;;51.03;19.27;;;;;;;;;;1735030;82;20867;-62
2021/12/23 06:19:56;;;;;;;43.60;19.07;;;;;;;;;;1755338;80;21697;-62
2021/12/23 06:22:22;;;;;;;46.03;18.30;;;;;;;;;;1759636;80;20935;-63
2021/12/23 06:24:49;;;;;;;34.77;16.63;;;;;;;;;;1733335;82;20863;-63
2021/12/23 06:27:16;;;;;;;42.47;19.70;;;;;;;;;;1767498;80;21155;-65
2021/12/23 06:29:43;;;;;;;38.17;18.20;;;;;;;;;;1770626;80;20921;-65
2021/12/23 06:32:09;;;;;;;41.13;19.03;;;;;;;;;;1765009;80;20946;-65
2021/12/23 06:34:37;;;;;;;50.77;21.77;;;;;;;;;;1729499;82;21496;-66
2021/12/23 06:37:04;;;;;;;51.47;21.63;;;;;;;;;;1764716;80;20948;-64
2021/12/23 06:39:32;;;;;;;42.70;20.73;;;;;;;;;;1731624;81;21143;-65
2021/12/23 06:41:59;;;;;;;53.27;23.37;;;;;;;;;;1735579;81;21576;-65
2021/12/23 06:44:26;;;;;;;50.30;20.93;;;;;;;;;;1733019;81;20954;-64
2021/12/23 06:46:52;;;;;;;44.43;20.63;;;;;;;;;;1733551;81;20983;-64
2021/12/23 06:49:18;;;;;;;37.47;19.37;;;;;;;;;;1736534;81;21084;-65
2021/12/23 06:51:45;;;;;;;40.30;17.50;;;;;;;;;;1706164;82;21036;-64
2021/12/23 06:54:15;;;;;;;31.93;17.77;;;;;;;;;;1705949;82;21520;-65
2021/12/23 06:56:41;;;;;;;39.93;20.03;;;;;;;;;;1711066;83;21518;-64
2021/12/23 06:59:07;;;;;;;43.80;20.67;;;;;;;;;;1710661;83;20918;-64
2021/12/23 07:01:33;;;;;;;36.67;18.10;;;;;;;;;;1705519;83;20910;-64
2021/12/23 07:04:08;;;;;;;29.87;15.43;;;;;;;;;;1707295;83;21768;-64
2021/12/23 07:06:36;;;;;;;29.63;16.45;;;;;;;;;;1748206;81;21066;-63
2021/12/23 07:09:04;;;;;;;46.85;25.55;;;;;;;;;;1743312;81;20893;-64
2021/12/23 07:11:33;;;;;;;55.00;27.22;;;;;;;;;;1736185;81;21502;-64
2021/12/23 07:13:59;;;;;;;47.05;25.80;;;;;;;;;;1740023;81;20946;-65
2021/12/23 07:16:25;;;;;;;44.85;23.07;;;;;;;;;;1752248;81;21156;-65
2021/12/23 07:18:51;;;;;;;43.90;22.75;;;;;;;;;;1736260;81;20893;-66
2021/12/23 07:21:17;;;;;;;43.15;23.50;;;;;;;;;;1736967;81;21172;-65
2021/12/23 07:23:43;;;;;;;51.25;25.92;;;;;;;;;;1738170;81;20924;-66
2021/12/23 07:26:09;;;;;;;49.10;25.30;;;;;;;;;;1742257;81;21551;-67
2021/12/23 07:28:35;;;;;;;47.25;23.70;;;;;;;;;;1738072;81;21106;-66
2021/12/23 07:31:01;;;;;;;39.20;21.35;;;;;;;;;;1735635;81;20876;-68
2021/12/23 07:33:28;;;;;;;36.33;19.48;;;;;;;;;;1737754;81;21502;-67
2021/12/23 07:35:54;;;;;;;27.52;17.35;;;;;;;;;;1748178;81;21014;-68
2021/12/23 07:38:20;;;;;;;31.05;16.70;;;;;;;;;;1742373;81;20837;-68
2021/12/23 07:40:47;;;;;;;33.50;18.75;;;;;;;;;;1749026;80;21793;-67
2021/12/23 07:43:43;;;;;;;37.78;19.90;;;;;;;;;;1756893;81;20907;-68
2021/12/23 07:46:00;;;;;;;38.92;20.12;;;;;;;;;;1754669;80;20942;-69
2021/12/23 07:48:27;;;;;;;40.23;22.77;;;;;;;;;;1756008;81;20982;-68
2021/12/23 07:50:54;;;;;;;43.58;22.82;;;;;;;;;;1756517;80;20940;-66
2021/12/23 07:53:20;;;;;;;44.95;21.90;;;;;;;;;;1752712;80;21131;-69
2021/12/23 07:55:46;;;;;;;49.30;22.02;;;;;;;;;;1754699;80;20978;-68
2021/12/23 07:58:12;;;;;;;53.85;26.35;;;;;;;;;;1755934;81;21461;-67
2021/12/23 08:00:38;;;;;;;49.53;24.00;;;;;;;;;;1756680;80;20946;-68
2021/12/23 08:03:04;;;;;;;51.28;27.13;;;;;;;;;;1754587;80;21472;-70
2021/12/23 08:05:31;;;;;;;49.60;25.35;;;;;;;;;;1753374;81;21156;-68
2021/12/23 08:07:58;;;;;;;40.03;23.05;;;;;;;;;;1752472;80;21497;-66
2021/12/23 08:10:24;;;;;;;40.98;22.45;;;;;;;;;;1757139;80;20942;-67
2021/12/23 08:12:50;;;;;;;33.58;20.52;;;;;;;;;;1755068;80;21127;-66
2021/12/23 08:15:17;;;;;;;41.95;22.15;;;;;;;;;;1756615;80;20930;-67
2021/12/23 08:17:43;;;;;;;34.15;21.40;;;;;;;;;;1756379;81;21133;-67
2021/12/23 08:20:11;;;;;;;39.03;22.80;;;;;;;;;;1755145;80;20930;-67
2021/12/23 08:22:37;;;;;;;38.73;23.52;;;;;;;;;;1748796;80;21033;-68
2021/12/23 08:25:05;;;;;;;39.63;23.52;;;;;;;;;;1756991;80;21452;-66
2021/12/23 08:27:31;;;;;;;34.92;23.22;;;;;;;;;;1755980;81;21514;-66
2021/12/23 08:29:58;;;;;;;39.58;25.25;;;;;;;;;;1758060;80;21149;-67
2021/12/23 08:32:24;;;;;;;40.12;24.55;;;;;;;;;;1753995;80;20914;-68
2021/12/23 08:34:50;;;;;;;40.95;25.27;;;;;;;;;;1754578;81;20864;-68
2021/12/23 08:37:16;;;;;;;43.78;25.62;;;;;;;;;;1755598;80;22307;-68
2021/12/23 08:39:42;;;;;;;41.60;25.23;;;;;;;;;;1753847;80;21464;-68
2021/12/23 08:42:09;;;;;;;47.17;27.58;;;;;;;;;;1750403;80;21142;-68
2021/12/23 08:44:35;;;;;;;52.08;28.85;;;;;;;;;;1756560;80;20935;-67
2021/12/23 08:47:02;;;;;;;44.08;27.15;;;;;;;;;;1753661;81;21468;-67
2021/12/23 08:49:28;;;;;;;41.73;24.47;;;;;;;;;;1756277;80;20990;-67
2021/12/23 08:51:55;;;;;;;33.67;21.80;;;;;;;;;;1747990;80;21136;-68
2021/12/23 08:54:21;;;;;;;31.02;21.42;;;;;;;;;;1741528;81;21816;-67
2021/12/23 08:56:47;;;;;;;34.13;22.35;;;;;;;;;;1749336;80;20990;-68
2021/12/23 08:59:13;;;;;;;30.50;20.85;;;;;;;;;;1747063;80;20890;-68
2021/12/23 09:01:40;;;;;;;30.70;21.15;;;;;;;;;;1744752;81;21493;-69
2021/12/23 09:04:06;;;;;;;31.68;21.62;;;;;;;;;;1749516;80;20987;-68
2021/12/23 09:06:32;;;;;;;30.82;19.85;;;;;;;;;;1754630;80;21093;-67
2021/12/23 09:08:58;;;;;;;31.15;20.23;;;;;;;;;;1756385;81;21512;-63
2021/12/23 09:11:25;;;;;;;35.10;23.00;;;;;;;;;;1755372;80;21574;-64
2021/12/23 09:13:52;;;;;;;42.50;24.52;;;;;;;;;;1753808;80;20899;-63
2021/12/23 09:16:18;;;;;;;35.75;24.87;;;;;;;;;;1758922;81;20930;-67
2021/12/23 09:18:45;;;;;;;28.70;20.95;;;;;;;;;;1756171;80;21147;-68
2021/12/23 09:21:12;;;;;;;29.25;19.02;;;;;;;;;;1755206;80;20919;-64
2021/12/23 09:23:42;;;;;;;26.20;19.48;;;;;;;;;;1756116;80;21044;-65
2021/12/23 09:26:10;;;;;;;24.77;19.23;;;;;;;;;;1755083;81;20938;-65
2021/12/23 09:33:54;;;;;;;25.70;19.02;;;;;;;;;;1741683;80;20922;-66
2021/12/23 09:36:20;;;;;;;25.88;20.70;;;;;;;;;;1741454;81;20965;-66
2021/12/23 09:38:46;;;;;;;31.17;22.52;;;;;;;;;;1742481;80;20985;-67
2021/12/23 09:41:15;;;;;;;30.80;22.67;;;;;;;;;;1742738;80;21559;-66
2021/12/23 09:43:41;;;;;;;45.23;29.65;;;;;;;;;;1739992;80;21451;-66
2021/12/23 09:46:09;;;;;;;30.60;21.77;;;;;;;;;;1738432;81;21029;-65
2021/12/23 09:48:36;;;;;;;25.27;19.30;;;;;;;;;;1741743;80;20990;-65
2021/12/23 09:51:04;;;;;;;30.80;22.85;;;;;;;;;;1715742;81;21453;-66
2021/12/23 09:53:31;;;;;;;25.55;20.32;;;;;;;;;;1742704;80;21035;-66
2021/12/23 09:55:58;;;;;;;23.70;18.87;;;;;;;;;;1744032;80;21227;-66
2021/12/23 09:58:24;;;;;;;22.62;19.05;;;;;;;;;;1740333;80;20927;-65
2021/12/23 10:00:51;;;;;;;21.00;17.25;;;;;;;;;;1742836;80;20958;-67
2021/12/23 10:03:19;;;;;;;28.25;20.55;;;;;;;;;;1740494;81;21159;-67
2021/12/23 10:05:46;;;;;;;31.73;22.22;;;;;;;;;;1741623;80;21026;-66
2021/12/23 10:08:14;;;;;;;27.58;21.82;;;;;;;;;;1744605;80;21140;-64
2021/12/23 10:10:46;;;;;;;30.05;20.57;;;;;;;;;;1746827;80;20958;-62
2021/12/23 10:38:06;;;;;;;35.92;23.80;;;;;;;;;;1692404;84;20952;-65
2021/12/23 10:40:33;;;;;;;37.45;23.67;;;;;;;;;;1766434;78;21005;-63
2021/12/23 10:42:59;;;;;;;35.58;22.87;;;;;;;;;;1775110;79;20994;-63
2021/12/23 10:45:36;;;;;;;31.30;21.82;;;;;;;;;;1775496;79;21471;-65
2021/12/23 10:48:08;;;;;;;33.15;22.75;;;;;;;;;;1774937;79;21835;-64
2021/12/23 10:50:43;;;;;;;38.58;23.40;;;;;;;;;;1779742;79;21397;-67
2021/12/23 10:53:37;;;;;;;37.03;23.32;;;;;;;;;;1782243;79;21030;-66
2021/12/23 10:59:18;;;;;;;34.80;21.62;;;;;;;;;;1779281;79;20938;-64
2021/12/23 11:02:17;;;;;;;29.10;20.70;;;;;;;;;;1770524;79;21907;-65
2021/12/23 11:05:00;;;;;;;34.70;22.48;;;;;;;;;;1772838;79;26312;-65
2021/12/23 11:07:28;;;;;;;35.52;24.27;;;;;;;;;;1768842;79;20914;-65
2021/12/23 11:10:04;;;;;;;30.35;20.43;;;;;;;;;;1787095;79;20981;-66
2021/12/23 11:37:56;;;;;;;27.55;18.30;;;;;;;;;;1776272;79;21060;-62
2021/12/23 11:40:49;;;;;;;30.97;19.98;;;;;;;;;;1772246;79;20914;-61
2021/12/23 11:43:26;;;;;;;45.23;25.32;;;;;;;;;;1796466;78;21154;-63
2021/12/23 11:45:31;;;;;;;38.05;21.85;;;;;;;;;;1797887;78;20938;-60
2021/12/23 11:47:59;;;;;;;33.53;21.82;;;;;;;;;;1803448;78;20972;-62
2021/12/23 11:50:33;;;;;;;40.73;24.87;;;;;;;;;;1798285;78;21005;-61
2021/12/23 11:52:53;;;;;;;39.18;23.65;;;;;;;;;;1799925;78;21025;-60
2021/12/23 11:55:19;;;;;;;38.30;24.45;;;;;;;;;;1798729;78;21203;-60
2021/12/23 11:57:45;;;;;;;37.73;23.65;;;;;;;;;;1763925;80;21527;-60
2021/12/23 12:00:19;;;;;;;39.55;24.85;;;;;;;;;;1807996;78;20984;-59
2021/12/23 12:02:43;;;;;;;32.13;20.37;;;;;;;;;;1798391;78;21444;-60
2021/12/23 12:05:15;;;;;;;34.13;21.05;;;;;;;;;;1812609;78;21016;-61
2021/12/23 12:07:43;;;;;;;34.53;21.87;;;;;;;;;;1799917;78;21158;-60
2021/12/23 12:10:14;;;;;;;39.88;24.90;;;;;;;;;;1793288;78;21028;-62
2021/12/23 12:13:01;;;;;;;39.00;24.12;;;;;;;;;;1770725;78;21582;-60
2021/12/23 12:15:43;;;;;;;39.42;23.10;;;;;;;;;;1810021;78;20962;-60
2021/12/23 12:18:12;;;;;;;35.45;22.25;;;;;;;;;;1763662;80;36696;-60
2021/12/23 12:20:46;;;;;;;34.70;22.37;;;;;;;;;;1798202;78;21220;-60
2021/12/23 12:23:16;;;;;;;36.53;22.85;;;;;;;;;;1794694;78;20902;-61
2021/12/23 12:25:48;;;;;;;33.30;21.40;;;;;;;;;;1761863;80;21520;-60
2021/12/23 12:28:18;;;;;;;38.83;21.48;;;;;;;;;;1804817;78;21012;-61
2021/12/23 12:30:51;;;;;;;27.25;18.30;;;;;;;;;;1802272;78;21032;-61
2021/12/23 12:33:27;;;;;;;30.40;19.27;;;;;;;;;;1805535;78;21147;-61
2021/12/23 12:36:08;;;;;;;28.30;18.92;;;;;;;;;;1804864;78;20950;-61
2021/12/23 12:38:37;;;;;;;33.00;20.92;;;;;;;;;;1802665;78;21428;-62
2021/12/23 12:41:06;;;;;;;33.90;20.65;;;;;;;;;;1793460;78;20989;-61
2021/12/23 12:44:00;;;;;;;32.70;20.20;;;;;;;;;;1774928;79;21541;-60
2021/12/23 12:49:25;;;;;;;31.45;21.27;;;;;;;;;;1777530;80;20966;-62
2021/12/23 12:51:52;;;;;;;43.52;24.05;;;;;;;;;;1785080;79;20871;-61
2021/12/23 12:54:26;;;;;;;38.08;23.73;;;;;;;;;;1771918;79;20938;-62
2021/12/23 12:56:50;;;;;;;41.83;24.63;;;;;;;;;;1770872;79;20883;-60
2021/12/23 12:59:17;;;;;;;42.48;25.95;;;;;;;;;;1777088;79;21182;-62
2021/12/23 13:01:49;;;;;;;43.60;25.52;;;;;;;;;;1777939;79;21480;-61
2021/12/23 13:04:31;;;;;;;41.83;24.32;;;;;;;;;;1785212;80;21547;-62
2021/12/23 13:06:58;;;;;;;53.33;28.02;;;;;;;;;;1771342;80;20899;-61
2021/12/23 13:09:36;;;;;;;61.00;31.20;;;;;;;;;;1748542;80;21012;-62
2021/12/23 13:12:35;;;;;;;42.85;25.12;;;;;;;;;;1775051;80;21103;-60
2021/12/23 13:15:16;;;;;;;34.15;21.33;;;;;;;;;;1766870;80;21069;-60
2021/12/23 13:18:03;;;;;;;35.38;22.55;;;;;;;;;;1780488;78;20958;-60
2021/12/23 13:20:40;;;;;;;36.13;20.68;;;;;;;;;;1777567;80;21598;-62
2021/12/23 13:23:11;;;;;;;37.43;21.63;;;;;;;;;;1784064;79;21077;-62
2021/12/23 13:25:55;;;;;;;36.08;20.88;;;;;;;;;;1778247;80;21134;-60
2021/12/23 13:28:29;;;;;;;38.08;20.37;;;;;;;;;;1775935;80;21041;-61
2021/12/23 13:30:56;;;;;;;37.25;21.50;;;;;;;;;;1778985;80;20930;-60
2021/12/23 13:33:23;;;;;;;39.03;23.77;;;;;;;;;;1772592;80;20890;-61
2021/12/23 13:35:50;;;;;;;36.33;22.52;;;;;;;;;;1779759;79;21036;-68
2021/12/23 13:38:41;;;;;;;35.58;21.90;;;;;;;;;;1781053;80;21158;-64
2021/12/23 13:41:19;;;;;;;33.50;20.95;;;;;;;;;;1778298;79;20966;-68
2021/12/23 13:43:47;;;;;;;35.03;21.85;;;;;;;;;;1804096;78;20973;-69
2021/12/23 13:46:13;;;;;;;36.73;22.82;;;;;;;;;;1811867;78;20998;-68
2021/12/23 13:48:51;;;;;;;35.88;21.52;;;;;;;;;;1813513;78;21507;-69
2021/12/23 13:51:20;;;;;;;36.70;21.35;;;;;;;;;;1803259;78;22144;-70
2021/12/23 13:53:46;;;;;;;32.88;20.02;;;;;;;;;;1804466;78;20887;-69
2021/12/23 13:56:13;;;;;;;40.43;23.62;;;;;;;;;;1800605;78;21476;-70
2021/12/23 13:58:39;;;;;;;38.42;22.80;;;;;;;;;;1805176;78;21054;-67
2021/12/23 14:01:06;;;;;;;39.25;21.70;;;;;;;;;;1799273;78;21045;-68
2021/12/23 14:03:32;;;;;;;37.35;21.75;;;;;;;;;;1799442;78;21270;-69
2021/12/23 14:06:01;;;;;;;43.52;23.70;;;;;;;;;;1800951;78;21622;-68
2021/12/23 14:08:30;;;;;;;43.98;24.02;;;;;;;;;;1809936;78;20969;-69
2021/12/23 14:10:56;;;;;;;41.15;22.10;;;;;;;;;;1808579;78;20968;-68
2021/12/23 14:13:22;;;;;;;40.00;22.25;;;;;;;;;;1807519;78;20847;-68
2021/12/23 14:15:50;;;;;;;31.57;19.48;;;;;;;;;;1797631;78;21090;-68
2021/12/23 14:18:47;;;;;;;34.92;20.32;;;;;;;;;;1811532;78;20978;-68
2021/12/23 14:23:40;;;;;;;34.40;19.48;;;;;;;;;;1808881;78;20891;-69
2021/12/23 14:26:20;;;;;;;37.85;20.05;;;;;;;;;;1812655;78;20874;-71
2021/12/23 14:28:49;;;;;;;36.13;20.82;;;;;;;;;;1810848;78;21170;-67
2021/12/23 14:31:22;;;;;;;36.58;20.57;;;;;;;;;;1808827;78;20942;-67
2021/12/23 14:33:56;;;;;;;38.17;21.30;;;;;;;;;;1803756;78;21051;-66
2021/12/23 14:36:32;;;;;;;41.73;21.55;;;;;;;;;;1806372;78;21992;-67
2021/12/23 14:39:00;;;;;;;36.00;22.27;;;;;;;;;;1819656;78;25718;-68
2021/12/23 14:41:41;;;;;;;38.88;20.80;;;;;;;;;;1806557;78;21506;-64
2021/12/23 14:44:21;;;;;;;41.63;21.50;;;;;;;;;;1802619;78;20918;-66
2021/12/23 14:47:03;;;;;;;36.90;20.62;;;;;;;;;;1802610;78;21028;-66
2021/12/23 14:52:20;;;;;;;39.40;21.60;;;;;;;;;;1807864;78;21041;-65
2021/12/23 14:54:53;;;;;;;36.60;21.52;;;;;;;;;;1809796;78;23286;-65
2021/12/23 14:57:21;;;;;;;35.25;21.20;;;;;;;;;;1805829;78;20945;-67
2021/12/23 14:59:51;;;;;;;39.80;22.25;;;;;;;;;;1817595;78;21008;-66
2021/12/23 15:02:19;;;;;;;34.73;21.50;;;;;;;;;;1801276;78;21591;-66
2021/12/23 15:04:58;;;;;;;36.08;22.75;;;;;;;;;;1802846;78;20954;-67
2021/12/23 15:07:24;;;;;;;37.98;22.70;;;;;;;;;;1808341;78;21144;-67
2021/12/23 15:09:58;;;;;;;39.13;22.58;;;;;;;;;;1814819;78;21421;-66
2021/12/23 15:12:25;;;;;;;40.85;23.18;;;;;;;;;;1799464;78;20882;-67
2021/12/23 15:14:53;;;;;;;35.88;21.82;;;;;;;;;;1809214;78;20887;-66
2021/12/23 15:17:29;;;;;;;39.60;21.85;;;;;;;;;;1806607;78;21013;-65
2021/12/23 15:19:52;;;;;;;38.02;22.22;;;;;;;;;;1810165;78;21169;-67
2021/12/23 15:22:20;;;;;;;36.65;22.22;;;;;;;;;;1813093;78;21002;-66
2021/12/23 15:25:06;;;;;;;35.80;20.68;;;;;;;;;;1802256;78;20981;-66
2021/12/23 15:27:38;;;;;;;36.97;22.87;;;;;;;;;;1803900;78;21582;-66
2021/12/23 15:30:04;;;;;;;39.53;21.35;;;;;;;;;;1790927;78;20965;-67
2021/12/23 15:32:34;;;;;;;41.20;23.40;;;;;;;;;;1803014;78;21503;-68
2021/12/23 15:35:06;;;;;;;44.20;23.02;;;;;;;;;;1798615;78;20990;-69
2021/12/23 15:37:36;;;;;;;36.80;21.93;;;;;;;;;;1805922;78;21429;-68